Time;durP1;ratioP1;P1;durP2;ratioP2;P2;SDS_P1;SDS_P2;PMS_P1;PMS_P2;Temp;Humidity;BMP_temperature;BMP_pressure;BME280_temperature;BME280_humidity;BME280_pressure;Samples;Min_cycle;Max_cycle;Signal;HPM_P1;HPM_P2
2022/05/20 00:01:03;;;;;;;0.88;0.85;;;12.00;72.10;;;;;;5012529;28;21523;-69
2022/05/20 00:03:31;;;;;;;1.38;1.27;;;11.90;72.40;;;;;;5010692;28;20199;-69
2022/05/20 00:05:59;;;;;;;1.23;1.00;;;11.90;73.10;;;;;;5011023;28;20271;-69
2022/05/20 00:08:26;;;;;;;1.05;0.98;;;11.90;73.00;;;;;;5013433;28;20196;-71
2022/05/20 00:10:53;;;;;;;1.10;1.10;;;11.90;73.00;;;;;;5015812;28;20271;-70
2022/05/20 00:13:24;;;;;;;1.05;0.93;;;11.90;73.60;;;;;;5010774;28;20216;-70
2022/05/20 00:15:50;;;;;;;1.98;1.00;;;11.90;74.00;;;;;;5015446;28;20633;-70
2022/05/20 00:18:16;;;;;;;1.15;0.80;;;11.90;73.30;;;;;;5014472;28;20219;-70
2022/05/20 00:20:42;;;;;;;2.15;0.60;;;11.90;73.40;;;;;;5011927;28;20239;-70
2022/05/20 00:23:08;;;;;;;0.93;0.93;;;11.80;74.00;;;;;;5009151;28;20238;-69
2022/05/20 00:25:46;;;;;;;0.60;0.60;;;11.80;73.80;;;;;;5011858;28;20432;-69
2022/05/20 00:28:20;;;;;;;0.80;0.80;;;11.70;73.90;;;;;;5015221;28;20204;-69
2022/05/20 00:30:48;;;;;;;4.95;1.00;;;11.70;74.00;;;;;;5015129;28;20197;-70
2022/05/20 00:33:14;;;;;;;3.08;1.13;;;11.70;74.20;;;;;;5016694;28;20190;-70
2022/05/20 00:35:40;;;;;;;1.33;0.88;;;11.60;74.10;;;;;;5015859;28;20181;-70
2022/05/20 00:38:06;;;;;;;0.82;0.82;;;11.60;74.00;;;;;;5013001;28;20256;-70
2022/05/20 00:40:32;;;;;;;1.85;0.95;;;11.60;74.30;;;;;;5012690;28;20392;-70
2022/05/20 00:43:16;;;;;;;0.90;0.90;;;11.60;74.30;;;;;;5013892;28;20701;-69
2022/05/20 00:45:43;;;;;;;0.95;0.95;;;11.60;74.40;;;;;;5008740;28;20230;-69
2022/05/20 00:48:09;;;;;;;1.00;1.00;;;11.50;73.90;;;;;;5010747;28;22123;-69
2022/05/20 00:50:38;;;;;;;2.93;0.73;;;11.50;74.50;;;;;;5015944;28;20189;-69
2022/05/20 00:53:05;;;;;;;0.70;0.70;;;11.50;74.70;;;;;;5013666;28;20185;-69
2022/05/20 00:55:31;;;;;;;0.70;0.70;;;11.40;75.10;;;;;;5017190;28;20243;-69
2022/05/20 00:58:07;;;;;;;0.83;0.83;;;11.40;74.30;;;;;;5016980;28;20189;-69
2022/05/20 01:00:39;;;;;;;0.80;0.80;;;11.40;74.60;;;;;;5012879;28;20223;-69
2022/05/20 01:03:07;;;;;;;0.60;0.60;;;11.30;75.10;;;;;;5012744;28;20267;-70
2022/05/20 01:05:44;;;;;;;0.60;0.60;;;11.40;75.20;;;;;;5010099;28;20192;-69
2022/05/20 01:08:14;;;;;;;0.95;0.95;;;11.30;75.10;;;;;;5013762;28;20193;-69
2022/05/20 01:10:40;;;;;;;0.70;0.70;;;;;;;;;;5014193;28;20295;-68
2022/05/20 01:13:08;;;;;;;0.63;0.60;;;11.30;75.40;;;;;;5008923;28;20208;-69
2022/05/20 01:15:33;;;;;;;0.57;0.50;;;11.30;75.10;;;;;;5014692;28;20187;-69
2022/05/20 01:17:59;;;;;;;0.70;0.70;;;11.20;75.30;;;;;;5011710;28;20205;-69
2022/05/20 01:20:30;;;;;;;3.47;0.80;;;11.20;75.40;;;;;;5011894;28;20584;-69
2022/05/20 01:23:06;;;;;;;0.40;0.40;;;11.20;75.60;;;;;;5025725;28;20193;-69
2022/05/20 01:25:32;;;;;;;1.95;0.98;;;11.20;76.00;;;;;;5010739;28;20179;-69
2022/05/20 01:27:58;;;;;;;0.50;0.50;;;11.10;75.90;;;;;;5010855;28;20181;-69
2022/05/20 01:30:26;;;;;;;0.50;0.50;;;11.10;75.90;;;;;;5010922;28;20195;-68
2022/05/20 01:32:52;;;;;;;1.90;0.87;;;11.00;75.60;;;;;;5012795;28;20540;-69
2022/05/20 01:35:47;;;;;;;0.90;0.90;;;11.00;75.70;;;;;;5010518;28;20623;-69
2022/05/20 01:38:13;;;;;;;0.77;0.77;;;11.00;76.00;;;;;;4932074;29;21017;-69
2022/05/20 01:41:00;;;;;;;0.70;0.70;;;11.00;75.90;;;;;;4929732;29;20221;-69
2022/05/20 01:43:55;;;;;;;0.50;0.50;;;11.00;75.90;;;;;;4925180;29;20269;-69
2022/05/20 01:46:42;;;;;;;0.60;0.60;;;11.00;75.80;;;;;;4927461;29;20289;-70
2022/05/20 01:49:17;;;;;;;0.97;0.83;;;10.90;76.20;;;;;;4932034;29;20630;-69
2022/05/20 01:52:06;;;;;;;0.90;0.90;;;10.90;76.00;;;;;;4936959;29;20719;-69
2022/05/20 01:54:46;;;;;;;0.50;0.50;;;10.80;76.20;;;;;;4928194;29;20274;-69
2022/05/20 01:57:19;;;;;;;0.43;0.43;;;10.80;76.00;;;;;;4930422;29;20202;-68
2022/05/20 01:59:51;;;;;;;5.55;0.75;;;10.80;76.10;;;;;;4920978;29;20341;-69
2022/05/20 02:02:29;;;;;;;0.60;0.60;;;10.80;76.20;;;;;;4930053;29;20202;-69
2022/05/20 02:05:27;;;;;;;0.70;0.70;;;10.80;76.30;;;;;;4924163;29;20191;-69
2022/05/20 02:08:06;;;;;;;3.78;0.95;;;10.80;76.40;;;;;;4931284;29;20259;-69
2022/05/20 02:10:55;;;;;;;0.80;0.77;;;10.80;76.70;;;;;;4930027;29;20198;-69
2022/05/20 02:13:23;;;;;;;1.23;0.80;;;10.70;76.80;;;;;;4928805;29;20194;-69
2022/05/20 02:15:57;;;;;;;1.07;0.60;;;10.70;76.60;;;;;;5012138;28;20196;-69
2022/05/20 02:18:33;;;;;;;0.77;0.77;;;10.70;76.90;;;;;;5011189;28;20185;-69
2022/05/20 02:21:05;;;;;;;0.53;0.50;;;10.60;76.70;;;;;;5010017;28;20234;-69
2022/05/20 02:23:46;;;;;;;0.50;0.50;;;10.60;77.10;;;;;;5008759;28;20201;-69
2022/05/20 02:26:15;;;;;;;0.60;0.60;;;10.60;76.70;;;;;;5012382;28;20193;-69
2022/05/20 02:28:49;;;;;;;1.13;0.50;;;10.50;76.70;;;;;;5007052;28;20185;-69
2022/05/20 02:31:24;;;;;;;0.47;0.47;;;10.50;76.80;;;;;;5011688;28;20217;-69
2022/05/20 02:33:51;;;;;;;0.70;0.70;;;10.50;76.90;;;;;;5013898;28;20187;-69
2022/05/20 02:36:34;;;;;;;1.87;0.80;;;10.50;76.90;;;;;;5014349;28;20214;-69
2022/05/20 02:39:02;;;;;;;0.50;0.50;;;10.50;77.00;;;;;;5011676;28;20220;-69
2022/05/20 02:41:29;;;;;;;0.87;0.50;;;10.40;76.90;;;;;;5010477;28;20278;-69
2022/05/20 02:43:55;;;;;;;11.63;0.70;;;10.40;77.00;;;;;;5004004;28;20223;-69
2022/05/20 02:46:21;;;;;;;0.50;0.50;;;10.40;76.90;;;;;;5019855;28;20188;-69
2022/05/20 02:48:47;;;;;;;1.67;0.73;;;10.40;76.90;;;;;;5012280;28;20295;-69
2022/05/20 02:51:16;;;;;;;0.70;0.70;;;;;;;;;;5011698;28;20221;-68
2022/05/20 02:53:43;;;;;;;0.87;0.50;;;10.20;77.60;;;;;;5045803;28;20191;-70
2022/05/20 02:56:08;;;;;;;0.50;0.50;;;10.20;77.10;;;;;;5014191;28;20187;-69
2022/05/20 03:04:11;;;;;;;0.40;0.40;;;10.20;78.00;;;;;;5013087;28;20187;-69
2022/05/20 03:06:46;;;;;;;0.50;0.50;;;10.20;78.10;;;;;;5017048;28;20720;-69
2022/05/20 03:09:14;;;;;;;5.30;0.70;;;10.20;78.30;;;;;;5014218;28;20188;-69
2022/05/20 03:11:40;;;;;;;0.47;0.47;;;10.20;78.30;;;;;;5048077;28;20196;-69
2022/05/20 03:14:08;;;;;;;0.50;0.50;;;10.20;78.20;;;;;;5013036;28;20212;-69
2022/05/20 03:16:35;;;;;;;0.53;0.53;;;10.20;78.60;;;;;;5011689;28;20686;-70
2022/05/20 03:19:01;;;;;;;5.03;0.87;;;;;;;;;;5010400;28;20692;-71
2022/05/20 03:21:27;;;;;;;1.00;0.90;;;10.20;78.80;;;;;;5015198;28;20177;-69
2022/05/20 03:23:53;;;;;;;2.10;0.57;;;10.20;78.80;;;;;;5029831;28;20189;-69
2022/05/20 03:26:20;;;;;;;0.50;0.50;;;10.20;79.20;;;;;;5008508;28;20336;-69
2022/05/20 03:28:46;;;;;;;0.40;0.40;;;10.20;79.00;;;;;;5011403;28;20223;-69
2022/05/20 03:31:12;;;;;;;0.47;0.47;;;10.20;79.10;;;;;;5015817;28;20231;-68
2022/05/20 03:33:40;;;;;;;2.00;0.80;;;10.20;79.00;;;;;;5010773;28;20190;-69
2022/05/20 03:36:07;;;;;;;2.77;0.57;;;10.10;78.80;;;;;;5009695;28;20220;-69
2022/05/20 03:38:35;;;;;;;1.60;0.80;;;10.10;78.70;;;;;;5016078;28;20184;-69
2022/05/20 03:41:01;;;;;;;0.60;0.60;;;10.10;79.20;;;;;;5017203;28;20188;-69
2022/05/20 03:43:27;;;;;;;0.50;0.50;;;10.10;79.00;;;;;;5012060;28;21138;-69
2022/05/20 03:45:53;;;;;;;0.50;0.50;;;10.10;78.80;;;;;;5009158;28;20243;-69
2022/05/20 03:48:23;;;;;;;0.60;0.60;;;10.10;79.20;;;;;;5008179;28;20547;-69
2022/05/20 03:50:49;;;;;;;2.50;0.60;;;10.10;78.90;;;;;;5008208;28;20223;-69
2022/05/20 03:53:15;;;;;;;3.07;1.00;;;10.20;79.10;;;;;;5012848;28;20185;-69
2022/05/20 03:55:41;;;;;;;0.60;0.53;;;;;;;;;;5017751;28;20227;-69
2022/05/20 03:58:07;;;;;;;4.50;0.90;;;;;;;;;;5017648;28;20207;-69
2022/05/20 04:01:56;;;;;;;0.87;0.70;;;10.20;78.70;;;;;;5015871;28;20205;-70
2022/05/20 04:03:19;;;;;;;5.20;0.70;;;;;;;;;;5009293;28;20747;-69
2022/05/20 04:05:45;;;;;;;0.40;0.40;;;;;;;;;;5016064;28;20580;-69
2022/05/20 04:08:13;;;;;;;0.50;0.50;;;10.10;80.10;;;;;;5016131;28;20768;-69
2022/05/20 04:10:39;;;;;;;0.80;0.80;;;10.10;80.90;;;;;;5016395;28;20212;-69
2022/05/20 04:13:05;;;;;;;0.50;0.50;;;10.10;80.10;;;;;;5015023;28;20177;-69
2022/05/20 04:15:31;;;;;;;5.53;0.70;;;10.10;80.10;;;;;;5012167;28;20216;-69
2022/05/20 04:17:57;;;;;;;0.90;0.90;;;;;;;;;;5014293;28;20196;-69
2022/05/20 04:20:23;;;;;;;0.60;0.60;;;;;;;;;;5018730;28;20661;-69
2022/05/20 04:22:49;;;;;;;0.90;0.90;;;10.20;80.80;;;;;;5011242;28;20177;-69
2022/05/20 04:25:15;;;;;;;0.50;0.50;;;;;;;;;;5014189;28;20572;-69
2022/05/20 04:27:41;;;;;;;1.07;0.57;;;;;;;;;;5016003;28;20192;-69
2022/05/20 04:30:07;;;;;;;1.13;1.13;;;10.20;79.40;;;;;;5010552;28;20334;-69
2022/05/20 04:32:33;;;;;;;0.43;0.43;;;;;;;;;;5015238;28;20200;-69
2022/05/20 04:34:59;;;;;;;0.70;0.70;;;;;;;;;;5012498;28;20731;-69
2022/05/20 04:37:27;;;;;;;0.40;0.40;;;10.30;79.90;;;;;;5015722;28;20189;-68
2022/05/20 04:39:53;;;;;;;0.70;0.70;;;10.30;80.50;;;;;;5010413;28;20613;-69
2022/05/20 04:47:50;;;;;;;1.93;1.30;;;;;;;;;;5013716;28;20586;-69
2022/05/20 04:50:16;;;;;;;0.63;0.63;;;10.40;80.70;;;;;;5015279;28;20761;-69
2022/05/20 04:52:41;;;;;;;1.17;1.10;;;10.50;80.40;;;;;;5009857;28;20191;-71
2022/05/20 04:55:08;;;;;;;0.97;0.97;;;10.50;79.60;;;;;;5014191;28;20184;-71
2022/05/20 04:57:36;;;;;;;0.97;0.97;;;10.50;80.40;;;;;;5015149;28;20181;-70
2022/05/20 05:00:02;;;;;;;0.87;0.87;;;;;;;;;;5016339;28;20216;-71
2022/05/20 05:02:28;;;;;;;0.83;0.83;;;10.60;81.30;;;;;;5013130;28;20200;-71
2022/05/20 05:04:54;;;;;;;3.80;1.00;;;10.60;80.90;;;;;;5002151;28;20177;-69
2022/05/20 05:07:20;;;;;;;2.40;0.90;;;10.70;81.70;;;;;;5014520;28;20189;-69
2022/05/20 05:09:47;;;;;;;2.40;1.10;;;;;;;;;;5010773;28;20630;-69
2022/05/20 05:12:14;;;;;;;1.90;1.40;;;10.80;81.30;;;;;;5009876;28;21015;-69
2022/05/20 05:14:44;;;;;;;1.47;1.47;;;10.90;80.90;;;;;;5009039;28;20670;-70
2022/05/20 05:17:12;;;;;;;2.10;1.13;;;10.90;80.90;;;;;;5009825;28;21034;-70
2022/05/20 05:19:39;;;;;;;1.17;1.10;;;10.90;80.80;;;;;;5008749;28;20219;-69
2022/05/20 05:22:06;;;;;;;2.93;1.10;;;10.90;80.00;;;;;;5007353;28;20721;-71
2022/05/20 05:24:33;;;;;;;1.03;0.97;;;11.00;79.40;;;;;;5009687;28;20809;-69
2022/05/20 05:26:59;;;;;;;0.80;0.80;;;11.00;80.20;;;;;;5015023;28;20188;-71
2022/05/20 05:29:25;;;;;;;2.27;1.37;;;11.10;80.40;;;;;;5011078;28;21028;-71
2022/05/20 05:31:50;;;;;;;1.67;1.57;;;11.20;81.00;;;;;;5011717;28;20192;-71
2022/05/20 05:34:16;;;;;;;2.03;1.57;;;11.20;81.10;;;;;;5007249;28;20184;-72
2022/05/20 05:36:43;;;;;;;1.33;1.33;;;11.30;81.20;;;;;;5012541;28;20207;-71
2022/05/20 05:39:10;;;;;;;1.47;1.47;;;11.30;80.60;;;;;;5022349;28;20208;-71
2022/05/20 05:41:36;;;;;;;1.10;1.10;;;;;;;;;;5010880;28;21008;-72
2022/05/20 05:44:03;;;;;;;2.40;1.50;;;11.50;80.50;;;;;;5008064;28;20180;-70
2022/05/20 05:46:30;;;;;;;1.42;1.30;;;11.50;80.20;;;;;;5013239;28;20177;-72
2022/05/20 05:48:57;;;;;;;1.75;1.65;;;11.60;80.20;;;;;;5027006;28;20230;-72
2022/05/20 05:51:23;;;;;;;1.70;1.60;;;11.60;80.00;;;;;;5014735;28;20271;-71
2022/05/20 05:53:49;;;;;;;2.10;1.27;;;11.70;79.60;;;;;;5013484;28;20299;-72
2022/05/20 05:56:15;;;;;;;1.70;1.60;;;11.80;79.50;;;;;;5010419;28;20226;-72
2022/05/20 05:58:41;;;;;;;1.77;1.25;;;;;;;;;;5008960;28;20289;-73
2022/05/20 06:01:07;;;;;;;0.95;0.95;;;11.90;79.10;;;;;;5007427;28;20208;-74
2022/05/20 06:03:33;;;;;;;1.55;1.45;;;12.00;79.10;;;;;;5013579;28;20185;-73
2022/05/20 06:05:59;;;;;;;1.10;1.10;;;12.00;79.10;;;;;;5007811;28;20242;-76
2022/05/20 06:08:25;;;;;;;1.60;1.50;;;12.10;78.40;;;;;;5013717;28;20278;-74
2022/05/20 06:10:51;;;;;;;3.47;1.25;;;12.20;78.30;;;;;;5013473;28;20213;-71
2022/05/20 06:13:29;;;;;;;1.48;1.48;;;12.30;78.10;;;;;;5009638;28;20685;-71
2022/05/20 06:15:57;;;;;;;2.25;1.40;;;12.30;77.80;;;;;;5014234;28;20199;-72
2022/05/20 06:18:24;;;;;;;1.90;1.80;;;12.40;77.50;;;;;;5012372;28;20639;-71
2022/05/20 06:20:50;;;;;;;1.85;1.63;;;12.50;77.60;;;;;;5012626;28;20180;-72
2022/05/20 06:23:16;;;;;;;5.95;1.88;;;12.60;78.30;;;;;;5013281;28;20184;-71
2022/05/20 06:25:45;;;;;;;1.60;1.50;;;;;;;;;;5012728;28;20180;-71
2022/05/20 06:28:14;;;;;;;1.70;1.70;;;12.80;76.30;;;;;;5013845;28;20181;-71
2022/05/20 06:30:40;;;;;;;2.75;1.33;;;12.90;76.40;;;;;;5006774;28;20449;-71
2022/05/20 06:33:07;;;;;;;2.20;1.65;;;12.90;76.50;;;;;;5007494;28;20272;-70
2022/05/20 06:41:02;;;;;;;2.05;1.83;;;13.10;75.80;;;;;;5011777;28;20331;-71
2022/05/20 06:43:28;;;;;;;1.65;1.58;;;13.20;75.60;;;;;;5011673;28;20189;-71
2022/05/20 06:45:56;;;;;;;1.58;1.58;;;13.30;75.40;;;;;;5007033;28;20180;-71
2022/05/20 06:48:36;;;;;;;2.00;1.90;;;13.40;74.50;;;;;;5010689;28;20184;-71
2022/05/20 06:51:07;;;;;;;3.42;2.10;;;13.50;74.90;;;;;;5012295;28;20269;-71
2022/05/20 06:53:33;;;;;;;1.90;1.80;;;13.60;74.80;;;;;;4996882;28;20588;-71
2022/05/20 06:55:59;;;;;;;1.95;1.85;;;13.70;74.60;;;;;;5006832;28;20196;-71
2022/05/20 06:58:25;;;;;;;6.68;1.98;;;;;;;;;;5010342;28;20185;-71
2022/05/20 07:00:50;;;;;;;1.67;1.48;;;13.90;74.80;;;;;;5010649;28;20196;-70
2022/05/20 07:03:19;;;;;;;2.35;2.15;;;;;;;;;;5007911;28;20185;-70
2022/05/20 07:05:46;;;;;;;1.55;1.55;;;14.00;74.80;;;;;;5009171;28;20177;-70
2022/05/20 07:08:12;;;;;;;2.17;2.03;;;14.10;74.50;;;;;;5012736;28;20338;-70
2022/05/20 07:10:39;;;;;;;3.17;1.73;;;14.20;74.00;;;;;;5011819;28;20282;-70
2022/05/20 07:13:06;;;;;;;4.43;1.60;;;14.30;73.50;;;;;;5039012;28;20219;-71
2022/05/20 07:15:32;;;;;;;8.77;2.13;;;14.40;73.40;;;;;;5007618;28;20805;-72
2022/05/20 07:17:58;;;;;;;2.78;1.40;;;14.40;73.50;;;;;;4997624;28;20192;-71
2022/05/20 07:20:24;;;;;;;2.97;2.33;;;;;;;;;;5006368;28;20189;-71
2022/05/20 07:22:50;;;;;;;2.42;2.33;;;14.60;72.30;;;;;;5010112;28;20188;-71
2022/05/20 07:25:17;;;;;;;1.95;1.85;;;14.70;72.10;;;;;;5012941;28;20185;-71
2022/05/20 07:27:43;;;;;;;3.17;2.38;;;14.70;72.00;;;;;;5042642;28;20206;-71
2022/05/20 07:30:09;;;;;;;8.07;2.53;;;14.80;72.00;;;;;;5017604;28;20212;-70
2022/05/20 07:32:35;;;;;;;3.95;2.00;;;;;;;;;;5014611;28;20187;-70
2022/05/20 07:35:01;;;;;;;2.30;2.13;;;14.90;73.00;;;;;;5015855;28;20195;-70
2022/05/20 07:37:27;;;;;;;4.20;2.08;;;;;;;;;;5013742;28;20197;-71
2022/05/20 07:39:53;;;;;;;2.53;2.33;;;15.10;72.00;;;;;;5016193;28;20192;-71
2022/05/20 07:42:19;;;;;;;2.03;1.77;;;;;;;;;;5008607;28;20187;-70
2022/05/20 07:44:45;;;;;;;2.75;2.35;;;15.30;71.90;;;;;;5007547;28;20890;-71
2022/05/20 07:47:10;;;;;;;1.85;1.75;;;15.30;71.90;;;;;;5015084;28;20173;-71
2022/05/20 07:49:36;;;;;;;3.88;2.72;;;15.40;71.60;;;;;;5012575;28;20216;-72
2022/05/20 07:52:05;;;;;;;1.70;1.60;;;15.50;70.70;;;;;;5013733;28;20181;-71
2022/05/20 07:54:36;;;;;;;1.58;1.52;;;15.50;70.40;;;;;;5012480;28;20192;-71
2022/05/20 07:57:07;;;;;;;7.53;2.38;;;15.60;70.30;;;;;;5010452;28;20250;-72
2022/05/20 07:59:48;;;;;;;3.65;1.67;;;15.70;69.20;;;;;;5014050;28;20220;-71
2022/05/20 08:02:16;;;;;;;1.77;1.67;;;15.80;69.30;;;;;;5008233;28;20219;-70
2022/05/20 08:04:55;;;;;;;1.40;1.35;;;15.80;67.80;;;;;;5011439;28;20279;-70
2022/05/20 08:07:25;;;;;;;7.10;1.50;;;16.00;67.90;;;;;;5030375;28;20189;-71
2022/05/20 08:09:51;;;;;;;2.05;1.50;;;16.10;67.60;;;;;;5012820;28;20224;-71
2022/05/20 08:12:16;;;;;;;1.88;1.10;;;16.20;68.10;;;;;;5014227;28;20185;-71
2022/05/20 08:14:42;;;;;;;1.40;1.40;;;;;;;;;;5014112;28;20194;-71
2022/05/20 08:17:08;;;;;;;3.08;1.10;;;16.30;68.00;;;;;;5004438;28;20184;-71
2022/05/20 08:19:34;;;;;;;2.70;1.05;;;;;;;;;;5011535;28;20216;-72
2022/05/20 08:22:01;;;;;;;2.85;1.40;;;16.50;65.50;;;;;;5012299;28;20219;-71
2022/05/20 08:24:26;;;;;;;0.90;0.90;;;16.60;63.90;;;;;;5013609;28;20196;-71
2022/05/20 08:26:53;;;;;;;1.27;1.23;;;;;;;;;;5015260;28;20187;-72
2022/05/20 08:29:19;;;;;;;2.05;1.05;;;16.80;62.60;;;;;;5007825;28;20208;-71
2022/05/20 08:31:45;;;;;;;1.73;0.60;;;16.90;62.90;;;;;;5011217;28;20284;-71
2022/05/20 08:34:13;;;;;;;5.15;0.73;;;17.00;62.10;;;;;;5008757;28;20862;-70
2022/05/20 08:36:40;;;;;;;0.98;0.98;;;17.10;62.70;;;;;;5010850;28;20192;-70
2022/05/20 08:39:06;;;;;;;1.27;0.43;;;17.20;63.60;;;;;;5009216;28;20185;-70
2022/05/20 08:41:38;;;;;;;0.55;0.55;;;17.30;63.40;;;;;;5010114;28;20208;-71
2022/05/20 08:44:06;;;;;;;0.45;0.45;;;17.40;62.80;;;;;;5013434;28;20188;-70
2022/05/20 08:46:32;;;;;;;0.40;0.40;;;17.60;62.40;;;;;;5009134;28;20193;-70
2022/05/20 08:48:58;;;;;;;0.50;0.50;;;17.70;62.40;;;;;;5013256;28;21578;-70
2022/05/20 08:51:29;;;;;;;0.93;0.60;;;17.80;62.90;;;;;;5007399;28;20223;-71
2022/05/20 08:53:55;;;;;;;1.70;0.73;;;17.90;62.10;;;;;;5012002;28;20192;-71
2022/05/20 08:56:24;;;;;;;2.28;0.60;;;18.00;61.90;;;;;;5009216;28;20272;-71
2022/05/20 08:59:02;;;;;;;0.85;0.50;;;18.20;62.10;;;;;;5028461;28;21044;-71
2022/05/20 09:01:35;;;;;;;1.48;0.80;;;18.30;62.60;;;;;;5011246;28;20199;-71
2022/05/20 09:04:04;;;;;;;0.55;0.55;;;18.40;62.10;;;;;;5011180;28;20668;-71
2022/05/20 09:06:30;;;;;;;0.50;0.50;;;18.60;62.80;;;;;;5006798;28;20192;-71
2022/05/20 09:09:12;;;;;;;0.80;0.80;;;18.70;61.40;;;;;;5014353;28;20188;-71
2022/05/20 09:11:40;;;;;;;0.70;0.70;;;18.80;61.00;;;;;;5007944;28;20184;-72
2022/05/20 09:17:15;;;;;;;0.40;0.40;;;19.10;58.60;;;;;;5011716;28;20317;-71
2022/05/20 09:19:55;;;;;;;0.52;0.52;;;19.30;58.70;;;;;;5005275;28;20318;-70
2022/05/20 09:22:27;;;;;;;0.40;0.40;;;19.40;59.50;;;;;;5006069;28;20184;-71
2022/05/20 09:24:53;;;;;;;2.38;0.90;;;19.60;60.20;;;;;;4988876;28;20686;-72
2022/05/20 09:27:30;;;;;;;0.60;0.60;;;19.70;59.90;;;;;;5005253;28;20185;-71
2022/05/20 09:29:56;;;;;;;0.47;0.47;;;;;;;;;;5011261;28;20648;-72
2022/05/20 09:32:38;;;;;;;0.40;0.40;;;20.00;58.50;;;;;;5007438;28;20192;-70
2022/05/20 09:35:18;;;;;;;0.60;0.60;;;20.10;59.20;;;;;;5012738;28;20192;-71
2022/05/20 09:37:47;;;;;;;0.45;0.45;;;20.20;57.50;;;;;;5009667;28;20640;-72
2022/05/20 09:40:38;;;;;;;0.65;0.43;;;20.40;55.70;;;;;;4999271;28;20624;-70
2022/05/20 09:43:10;;;;;;;0.50;0.50;;;20.60;54.80;;;;;;4988294;28;20217;-70
2022/05/20 09:45:43;;;;;;;0.50;0.50;;;20.70;52.60;;;;;;4984904;28;20204;-70
2022/05/20 09:48:09;;;;;;;0.40;0.40;;;20.80;52.40;;;;;;4988243;28;20201;-71
2022/05/20 09:50:38;;;;;;;0.50;0.50;;;20.90;51.70;;;;;;4989859;28;20774;-71
2022/05/20 09:53:37;;;;;;;1.35;0.35;;;21.20;50.30;;;;;;4989296;28;20646;-71
2022/05/20 09:56:23;;;;;;;0.50;0.30;;;21.40;49.90;;;;;;4921819;29;21240;-71
2022/05/20 09:59:17;;;;;;;2.30;0.70;;;21.70;50.40;;;;;;4923529;29;20206;-71
2022/05/20 10:01:54;;;;;;;0.40;0.40;;;21.90;50.80;;;;;;4907314;29;20198;-71
2022/05/20 10:04:44;;;;;;;0.40;0.40;;;22.30;48.00;;;;;;4922282;29;20278;-70
2022/05/20 10:07:13;;;;;;;0.35;0.35;;;22.70;46.10;;;;;;4922682;29;20195;-72
2022/05/20 10:10:03;;;;;;;0.50;0.50;;;23.00;47.20;;;;;;4920282;29;20596;-71
2022/05/20 10:12:36;;;;;;;2.25;0.40;;;23.50;48.60;;;;;;4920795;29;20560;-71
2022/05/20 10:15:21;;;;;;;0.63;0.40;;;23.90;47.70;;;;;;4920582;29;20686;-71
2022/05/20 10:17:53;;;;;;;2.40;0.30;;;24.50;44.70;;;;;;4904488;29;20210;-71
2022/05/20 10:20:46;;;;;;;1.98;0.40;;;25.10;46.90;;;;;;4924694;29;20927;-72
2022/05/20 10:23:33;;;;;;;1.40;0.30;;;25.80;43.20;;;;;;4929548;29;20277;-72
2022/05/20 10:26:19;;;;;;;0.60;0.60;;;26.60;42.20;;;;;;4929731;29;21016;-72
2022/05/20 10:34:37;;;;;;;0.73;0.35;;;28.80;42.70;;;;;;5011365;28;20753;-71
2022/05/20 10:37:27;;;;;;;0.38;0.38;;;29.40;37.20;;;;;;5005545;28;20181;-71
2022/05/20 10:40:27;;;;;;;0.50;0.50;;;30.00;38.00;;;;;;5004213;28;20571;-71
2022/05/20 10:42:53;;;;;;;0.30;0.30;;;;;;;;;;4970205;28;20194;-71
2022/05/20 10:48:56;;;;;;;0.60;0.60;;;31.50;41.00;;;;;;4970130;28;20697;-72
2022/05/20 10:51:49;;;;;;;0.40;0.40;;;31.90;39.00;;;;;;4974782;28;20949;-72
2022/05/20 10:54:45;;;;;;;1.27;0.40;;;32.30;38.00;;;;;;4972444;28;20214;-70
2022/05/20 10:57:32;;;;;;;0.30;0.30;;;32.80;37.50;;;;;;4973755;28;20292;-72
2022/05/20 11:00:06;;;;;;;0.43;0.43;;;33.10;35.70;;;;;;4972357;28;20197;-70
2022/05/20 11:02:32;;;;;;;5.57;0.75;;;;;;;;;;4974405;28;20666;-71
2022/05/20 11:05:10;;;;;;;0.50;0.50;;;33.80;36.70;;;;;;4975577;28;20635;-71
2022/05/20 11:07:56;;;;;;;0.35;0.35;;;33.80;34.70;;;;;;4978303;28;20200;-70
2022/05/20 11:10:39;;;;;;;1.27;0.45;;;33.60;35.30;;;;;;4960261;28;20220;-70
2022/05/20 11:13:13;;;;;;;2.72;0.80;;;33.40;35.30;;;;;;4976775;28;20199;-71
2022/05/20 11:15:39;;;;;;;0.73;0.40;;;;;;;;;;4972270;28;20740;-72
2022/05/20 11:18:35;;;;;;;0.30;0.30;;;34.00;34.70;;;;;;4974338;28;20836;-72
2022/05/20 11:21:58;;;;;;;3.05;0.50;;;34.10;33.70;;;;;;5009822;28;20205;-70
2022/05/20 11:24:57;;;;;;;0.43;0.40;;;34.30;35.90;;;;;;4928908;29;20195;-70
2022/05/20 11:27:59;;;;;;;0.43;0.40;;;34.10;33.60;;;;;;4928847;29;20297;-70
2022/05/20 11:31:09;;;;;;;0.47;0.47;;;34.00;34.60;;;;;;4929604;29;20258;-69
2022/05/20 11:33:54;;;;;;;1.67;0.55;;;34.10;36.10;;;;;;4949718;28;20221;-71
2022/05/20 11:36:57;;;;;;;0.65;0.40;;;34.40;35.70;;;;;;4948519;28;20564;-72
2022/05/20 11:39:26;;;;;;;0.63;0.38;;;;;;;;;;4894579;29;20234;-72
2022/05/20 11:42:30;;;;;;;0.40;0.40;;;34.00;36.30;;;;;;4897236;29;20303;-71
2022/05/20 11:45:26;;;;;;;0.40;0.40;;;34.10;36.20;;;;;;4842745;29;20675;-71
2022/05/20 11:48:10;;;;;;;0.40;0.40;;;34.00;34.60;;;;;;4827890;29;20206;-71
2022/05/20 11:50:56;;;;;;;4.22;0.30;;;34.10;35.00;;;;;;4829812;29;20253;-71
2022/05/20 11:53:46;;;;;;;0.82;0.40;;;34.40;35.60;;;;;;4828436;29;20470;-70
2022/05/20 11:56:21;;;;;;;1.75;0.40;;;34.90;35.70;;;;;;4884306;29;20671;-71
2022/05/20 11:58:49;;;;;;;0.30;0.30;;;35.40;35.00;;;;;;4884825;29;20310;-70
2022/05/20 12:01:16;;;;;;;2.08;0.77;;;35.90;34.70;;;;;;4883846;29;20399;-71
2022/05/20 12:06:30;;;;;;;0.40;0.40;;;37.10;35.30;;;;;;4884516;29;20237;-72
2022/05/20 12:08:58;;;;;;;0.30;0.30;;;37.30;32.90;;;;;;4884639;29;20765;-70
2022/05/20 12:11:28;;;;;;;0.25;0.25;;;37.60;33.80;;;;;;4870435;29;20217;-72
2022/05/20 12:14:17;;;;;;;1.45;0.40;;;37.90;34.80;;;;;;4870810;29;20211;-72
2022/05/20 12:17:05;;;;;;;0.30;0.30;;;37.60;32.00;;;;;;4912355;29;20271;-71
2022/05/20 12:25:57;;;;;;;0.40;0.38;;;38.30;33.10;;;;;;4965134;28;20231;-71
2022/05/20 12:28:23;;;;;;;0.40;0.40;;;;;;;;;;4963839;28;20190;-70
2022/05/20 12:31:24;;;;;;;4.63;0.30;;;38.80;34.10;;;;;;4962498;28;20227;-71
2022/05/20 12:34:03;;;;;;;0.30;0.30;;;39.00;35.20;;;;;;4964229;28;20354;-72
2022/05/20 12:36:29;;;;;;;0.30;0.30;;;;;;;;;;4966150;28;20675;-72
2022/05/20 12:39:07;;;;;;;0.43;0.30;;;38.70;32.10;;;;;;4967187;28;20288;-72
2022/05/20 12:42:00;;;;;;;0.40;0.40;;;39.00;31.70;;;;;;4964216;28;20248;-72
2022/05/20 12:44:26;;;;;;;1.35;0.20;;;;;;;;;;4963505;28;20194;-71
2022/05/20 12:47:04;;;;;;;0.45;0.43;;;39.60;31.70;;;;;;4969081;28;20195;-72
2022/05/20 12:49:48;;;;;;;0.40;0.40;;;39.90;30.80;;;;;;4971377;28;20185;-72
2022/05/20 12:52:19;;;;;;;0.40;0.40;;;40.20;31.40;;;;;;4966867;28;20693;-72
2022/05/20 12:54:52;;;;;;;0.30;0.30;;;40.20;32.90;;;;;;4969813;28;20236;-70
2022/05/20 12:57:21;;;;;;;0.40;0.40;;;40.10;31.10;;;;;;4966856;28;20251;-71
2022/05/20 12:59:54;;;;;;;1.58;0.30;;;39.90;31.90;;;;;;5006783;28;20261;-71
2022/05/20 13:02:21;;;;;;;0.57;0.40;;;39.70;32.50;;;;;;5001965;28;20290;-71
2022/05/20 13:05:05;;;;;;;0.40;0.40;;;39.50;32.10;;;;;;5010761;28;20195;-71
2022/05/20 13:07:34;;;;;;;0.52;0.50;;;39.50;32.50;;;;;;5011453;28;20351;-71
2022/05/20 13:09:59;;;;;;;0.30;0.30;;;39.40;30.90;;;;;;5028425;28;20559;-71
2022/05/20 13:12:26;;;;;;;0.30;0.30;;;39.40;33.40;;;;;;5013744;28;20190;-71
2022/05/20 13:14:58;;;;;;;1.27;0.22;;;38.90;33.30;;;;;;5012104;28;20176;-71
2022/05/20 13:17:25;;;;;;;1.08;0.40;;;38.00;30.00;;;;;;5010017;28;20202;-71
2022/05/20 13:19:55;;;;;;;0.60;0.32;;;37.90;34.80;;;;;;5011662;28;20667;-72
2022/05/20 13:22:27;;;;;;;0.30;0.30;;;37.60;31.10;;;;;;5013436;28;20188;-71
2022/05/20 13:25:09;;;;;;;0.30;0.30;;;37.60;32.50;;;;;;5007981;28;20262;-71
2022/05/20 13:27:43;;;;;;;0.25;0.25;;;37.30;32.50;;;;;;5009642;28;20563;-71
2022/05/20 13:30:19;;;;;;;0.40;0.40;;;37.40;32.00;;;;;;5009318;28;20709;-71
2022/05/20 13:32:45;;;;;;;0.20;0.20;;;37.40;32.70;;;;;;5011306;28;20821;-71
2022/05/20 13:35:11;;;;;;;0.43;0.43;;;37.60;35.00;;;;;;5013271;28;20208;-72
2022/05/20 13:37:49;;;;;;;0.40;0.40;;;37.70;32.80;;;;;;5011328;28;20180;-71
2022/05/20 13:40:37;;;;;;;1.38;0.30;;;38.00;33.30;;;;;;5008658;28;20652;-71
2022/05/20 13:43:03;;;;;;;0.20;0.20;;;38.30;32.70;;;;;;5013362;28;20184;-71
2022/05/20 13:51:09;;;;;;;0.30;0.30;;;39.00;33.60;;;;;;5010351;28;20197;-71
2022/05/20 13:53:40;;;;;;;0.40;0.40;;;38.90;33.50;;;;;;5011242;28;20193;-71
2022/05/20 13:56:08;;;;;;;0.30;0.30;;;39.10;32.30;;;;;;5009045;28;20194;-71
2022/05/20 13:58:39;;;;;;;0.30;0.30;;;39.40;32.00;;;;;;5007472;28;20187;-71
2022/05/20 14:01:08;;;;;;;2.30;0.57;;;39.70;31.40;;;;;;5010705;28;20222;-71
2022/05/20 14:03:40;;;;;;;0.57;0.57;;;40.00;31.20;;;;;;5007361;28;20711;-72
2022/05/20 14:06:17;;;;;;;0.47;0.47;;;40.30;31.10;;;;;;5009558;28;20194;-71